createdAt,value
2022-08-24T00:00:40.446Z,22.28
2022-08-24T00:03:13.464Z,22.25
2022-08-24T00:05:46.159Z,22.24
2022-08-24T00:08:19.159Z,22.21
2022-08-24T00:10:51.046Z,22.17
2022-08-24T00:13:22.879Z,22.12
2022-08-24T00:15:55.596Z,22.09
2022-08-24T00:18:27.442Z,22.07
2022-08-24T00:20:59.344Z,22.03
2022-08-24T00:23:31.332Z,21.99
2022-08-24T00:26:03.316Z,21.96
2022-08-24T00:28:35.780Z,21.94
2022-08-24T00:31:08.334Z,21.92
2022-08-24T00:33:41.283Z,21.91
2022-08-24T00:36:13.276Z,21.90
2022-08-24T00:38:45.020Z,21.89
2022-08-24T00:41:17.250Z,21.89
2022-08-24T00:43:56.311Z,21.88
2022-08-24T00:46:46.449Z,21.85
2022-08-24T00:49:29.761Z,21.85
2022-08-24T00:52:11.278Z,21.82
2022-08-24T00:54:49.669Z,21.82
2022-08-24T00:57:23.923Z,21.81
2022-08-24T01:00:02.045Z,21.81
2022-08-24T01:02:37.069Z,21.81
2022-08-24T01:05:09.846Z,21.84
2022-08-24T01:07:41.915Z,21.86
2022-08-24T01:10:16.373Z,21.87
2022-08-24T01:13:00.776Z,21.92
2022-08-24T01:15:23.175Z,21.95
2022-08-24T01:18:12.907Z,21.98
2022-08-24T01:20:46.545Z,22.00
2022-08-24T01:23:38.376Z,22.05
2022-08-24T01:26:12.327Z,22.08
2022-08-24T01:28:47.584Z,22.11
2022-08-24T01:31:23.359Z,22.11
2022-08-24T01:33:56.975Z,22.14
2022-08-24T01:36:40.563Z,22.15
2022-08-24T01:39:21.164Z,22.15
2022-08-24T01:41:53.352Z,22.14
2022-08-24T01:44:27.377Z,22.14
2022-08-24T01:46:59.075Z,22.14
2022-08-24T01:49:33.913Z,22.14
2022-08-24T01:52:07.110Z,22.14
2022-08-24T01:54:43.487Z,22.13
2022-08-24T01:57:14.992Z,22.12
2022-08-24T01:59:48.305Z,22.11
2022-08-24T02:02:24.113Z,22.09
2022-08-24T02:04:55.926Z,22.09
2022-08-24T02:07:29.798Z,22.09
2022-08-24T02:10:01.579Z,22.07
2022-08-24T02:12:35.450Z,22.06
2022-08-24T02:15:08.807Z,22.05
2022-08-24T02:17:41.358Z,22.04
2022-08-24T02:20:13.294Z,22.04
2022-08-24T02:22:45.054Z,22.04
2022-08-24T02:25:17.825Z,22.02
2022-08-24T02:27:49.557Z,22.02
2022-08-24T02:30:21.695Z,22.04
2022-08-24T02:32:53.876Z,22.07
2022-08-24T02:35:25.744Z,22.07
2022-08-24T02:37:57.539Z,22.05
2022-08-24T02:40:30.420Z,22.04
2022-08-24T02:43:02.980Z,22.03
2022-08-24T02:45:41.371Z,22.02
2022-08-24T02:48:14.400Z,22.01
2022-08-24T02:50:48.482Z,22.01
2022-08-24T02:53:22.348Z,22.00
2022-08-24T02:55:54.545Z,21.98
2022-08-24T02:58:26.657Z,21.97
2022-08-24T03:00:58.664Z,21.94
2022-08-24T03:03:30.841Z,21.92
2022-08-24T03:06:03.626Z,21.87
2022-08-24T03:08:35.772Z,21.84
2022-08-24T03:11:08.519Z,21.81
2022-08-24T03:13:41.639Z,21.78
2022-08-24T03:16:13.724Z,21.76
2022-08-24T03:18:46.816Z,21.78
2022-08-24T03:21:18.723Z,21.79
2022-08-24T03:23:51.702Z,21.80
2022-08-24T03:26:23.739Z,21.82
2022-08-24T03:28:57.107Z,21.83
2022-08-24T03:31:30.957Z,21.87
2022-08-24T03:34:02.798Z,21.90
2022-08-24T03:36:34.970Z,21.92
2022-08-24T03:39:07.277Z,21.95
2022-08-24T03:41:39.339Z,21.99
2022-08-24T03:44:11.204Z,22.07
2022-08-24T03:46:45.098Z,22.14
2022-08-24T03:49:17.600Z,22.24
2022-08-24T03:51:50.465Z,22.32
2022-08-24T03:54:24.136Z,22.34
2022-08-24T03:56:55.934Z,22.35
2022-08-24T03:59:28.621Z,22.37
2022-08-24T04:02:01.742Z,22.39
2022-08-24T04:04:33.666Z,22.43
2022-08-24T04:07:06.463Z,22.44
2022-08-24T04:09:38.326Z,22.48
2022-08-24T04:12:11.594Z,22.49
2022-08-24T04:14:44.660Z,22.52
2022-08-24T04:17:18.935Z,22.55
2022-08-24T04:19:58.186Z,22.56
2022-08-24T04:22:34.473Z,22.57
2022-08-24T04:25:09.610Z,22.58
2022-08-24T04:27:43.264Z,22.59
2022-08-24T04:30:15.345Z,22.63
2022-08-24T04:32:48.914Z,22.63
2022-08-24T04:35:20.750Z,22.64
2022-08-24T04:37:53.042Z,22.67
2022-08-24T04:40:24.986Z,22.70
2022-08-24T04:42:58.819Z,22.72
2022-08-24T04:45:31.083Z,22.73
2022-08-24T04:48:03.019Z,22.78
2022-08-24T04:50:39.493Z,22.82
2022-08-24T04:53:13.735Z,22.87
2022-08-24T04:55:49.691Z,22.92
2022-08-24T04:58:22.160Z,22.99
2022-08-24T05:00:55.024Z,23.08
2022-08-24T05:03:26.853Z,23.19
2022-08-24T05:05:58.596Z,23.29
2022-08-24T05:08:30.363Z,23.39
2022-08-24T05:11:05.691Z,23.50
2022-08-24T05:13:38.147Z,23.60
2022-08-24T05:16:12.227Z,23.70
2022-08-24T05:18:45.262Z,23.79
2022-08-24T05:21:19.878Z,23.89
2022-08-24T05:23:53.763Z,23.98
2022-08-24T05:26:27.360Z,24.07
2022-08-24T05:29:01.102Z,24.14
2022-08-24T05:31:35.707Z,24.24
2022-08-24T05:34:09.832Z,24.32
2022-08-24T05:36:42.821Z,24.42
2022-08-24T05:39:16.277Z,24.48
2022-08-24T05:41:49.867Z,24.55
2022-08-24T05:44:30.689Z,24.64
2022-08-24T05:47:02.437Z,24.71
2022-08-24T05:49:40.801Z,24.79
2022-08-24T05:52:09.252Z,24.86
2022-08-24T05:54:41.107Z,24.92
2022-08-24T05:57:16.657Z,24.99
2022-08-24T05:59:56.590Z,25.05
2022-08-24T06:02:29.424Z,25.12
2022-08-24T06:05:01.661Z,25.18
2022-08-24T06:07:34.191Z,25.24
2022-08-24T06:10:34.834Z,25.28
2022-08-24T06:12:41.060Z,25.34
2022-08-24T06:15:13.422Z,25.42
2022-08-24T06:17:45.778Z,25.48
2022-08-24T06:20:17.934Z,25.54
2022-08-24T06:22:50.361Z,25.59
2022-08-24T06:25:40.509Z,25.66
2022-08-24T06:28:12.820Z,25.73
2022-08-24T06:30:45.040Z,25.83
2022-08-24T06:33:18.944Z,25.90
2022-08-24T06:35:52.650Z,25.96
2022-08-24T06:38:25.152Z,26.01
2022-08-24T06:40:57.659Z,26.07
2022-08-24T06:43:31.043Z,26.14
2022-08-24T06:46:05.358Z,26.23
2022-08-24T06:48:39.302Z,26.27
2022-08-24T06:51:13.105Z,26.32
2022-08-24T06:53:45.393Z,26.37
2022-08-24T06:56:17.573Z,26.42
2022-08-24T06:58:49.406Z,26.48
2022-08-24T07:01:28.647Z,26.53
2022-08-24T07:04:00.783Z,26.57
2022-08-24T07:06:44.433Z,26.62
2022-08-24T07:09:18.469Z,26.68
2022-08-24T07:11:50.998Z,26.74
2022-08-24T07:14:23.282Z,26.79
2022-08-24T07:16:55.605Z,26.84
2022-08-24T07:19:28.151Z,26.90
2022-08-24T07:22:00.016Z,26.96
2022-08-24T07:24:32.529Z,26.99
2022-08-24T07:27:04.882Z,27.03
2022-08-24T07:29:50.410Z,27.07
2022-08-24T07:32:12.544Z,27.12
2022-08-24T07:34:46.024Z,27.17
2022-08-24T07:37:18.107Z,27.21
2022-08-24T07:39:51.943Z,27.24
2022-08-24T07:42:31.258Z,27.30
2022-08-24T07:44:58.329Z,27.37
2022-08-24T07:47:41.042Z,27.44
2022-08-24T07:50:05.347Z,27.48
2022-08-24T07:52:37.365Z,27.51
2022-08-24T07:55:09.508Z,27.55
2022-08-24T07:57:44.960Z,27.57
2022-08-24T08:00:19.895Z,27.61
2022-08-24T08:02:53.735Z,27.65
2022-08-24T08:05:25.998Z,27.70
2022-08-24T08:07:58.253Z,27.72
2022-08-24T08:10:31.322Z,27.75
2022-08-24T08:13:06.168Z,27.78
2022-08-24T08:15:38.065Z,27.82
2022-08-24T08:18:11.973Z,27.86
2022-08-24T08:20:44.619Z,27.91
2022-08-24T08:23:34.718Z,27.94
2022-08-24T08:26:21.926Z,27.99
2022-08-24T08:28:58.367Z,28.05
2022-08-24T08:31:31.734Z,28.09
2022-08-24T08:34:06.223Z,28.15
2022-08-24T08:36:42.680Z,28.19
2022-08-24T08:39:17.616Z,28.22
2022-08-24T08:42:18.563Z,28.24
2022-08-24T08:45:12.502Z,28.27
2022-08-24T08:48:05.761Z,28.30
2022-08-24T08:51:00.726Z,28.30
2022-08-24T08:53:56.161Z,28.33
2022-08-24T08:56:59.600Z,28.36
2022-08-24T08:59:40.913Z,28.42
2022-08-24T09:02:26.078Z,28.49
2022-08-24T09:05:22.395Z,28.55
2022-08-24T09:08:17.399Z,28.59
2022-08-24T09:11:09.220Z,28.61
2022-08-24T09:14:00.028Z,28.65
2022-08-24T09:16:38.413Z,28.69
2022-08-24T09:19:31.876Z,28.71
2022-08-24T09:22:21.277Z,28.73
2022-08-24T09:25:05.259Z,28.76
2022-08-24T09:27:51.551Z,28.79
2022-08-24T09:30:28.158Z,28.85
2022-08-24T09:33:03.451Z,28.87
2022-08-24T09:35:55.749Z,28.90
2022-08-24T09:38:53.190Z,28.92
2022-08-24T09:41:43.306Z,28.95
2022-08-24T09:44:30.728Z,29.00
2022-08-24T09:47:17.788Z,29.07
2022-08-24T09:49:52.830Z,29.11
2022-08-24T09:52:36.553Z,29.16
2022-08-24T09:55:33.974Z,29.20
2022-08-24T09:58:14.977Z,29.25
2022-08-24T10:00:56.852Z,29.31
2022-08-24T10:03:58.208Z,29.36
2022-08-24T10:06:40.080Z,29.41
2022-08-24T10:09:48.134Z,29.45
2022-08-24T10:12:56.409Z,29.49
2022-08-24T10:15:33.979Z,29.54
2022-08-24T10:18:32.276Z,29.58
2022-08-24T10:21:32.413Z,29.63
2022-08-24T10:24:30.295Z,29.65
2022-08-24T10:27:23.701Z,29.71
2022-08-24T10:30:23.623Z,29.77
2022-08-24T10:32:56.323Z,29.81
2022-08-24T10:35:31.368Z,29.82
2022-08-24T10:38:40.844Z,29.87
2022-08-24T10:41:44.668Z,29.91
2022-08-24T10:44:26.040Z,29.99
2022-08-24T10:47:02.983Z,30.05
2022-08-24T10:49:38.663Z,30.05
2022-08-24T10:52:25.490Z,30.08
2022-08-24T10:54:57.850Z,30.10
2022-08-24T10:57:45.155Z,30.09
2022-08-24T11:00:20.412Z,30.10
2022-08-24T11:03:09.391Z,30.12
2022-08-24T11:05:47.066Z,30.13
2022-08-24T11:08:25.331Z,30.16
2022-08-24T11:11:14.656Z,30.17
2022-08-24T11:13:56.703Z,30.19
2022-08-24T11:16:32.292Z,30.21
2022-08-24T11:19:07.673Z,30.23
2022-08-24T11:21:45.619Z,30.25
2022-08-24T11:24:26.570Z,30.28
2022-08-24T11:27:04.024Z,30.30
2022-08-24T11:29:56.855Z,30.31
2022-08-24T11:32:43.683Z,30.34
2022-08-24T11:35:30.650Z,30.40
2022-08-24T11:38:08.621Z,30.41
2022-08-24T11:40:42.988Z,30.41
2022-08-24T11:43:29.702Z,30.44
2022-08-24T11:46:31.944Z,30.45
2022-08-24T11:49:15.944Z,30.46
2022-08-24T11:52:02.509Z,30.50
2022-08-24T11:54:54.277Z,30.55
2022-08-24T11:57:48.421Z,30.56
2022-08-24T12:00:23.531Z,30.59
2022-08-24T12:03:00.184Z,30.61
2022-08-24T12:05:44.569Z,30.64
2022-08-24T12:08:28.664Z,30.65
2022-08-24T12:11:23.828Z,30.68
2022-08-24T12:14:18.108Z,30.69
2022-08-24T12:17:08.032Z,30.70
2022-08-24T12:19:45.705Z,30.73
2022-08-24T12:22:17.803Z,30.74
2022-08-24T12:24:55.779Z,30.76
2022-08-24T12:27:30.093Z,30.77
2022-08-24T12:30:12.429Z,30.77
2022-08-24T12:32:49.931Z,30.81
2022-08-24T12:35:24.923Z,30.84
2022-08-24T12:38:03.128Z,30.87
2022-08-24T12:40:43.801Z,30.90
2022-08-24T12:43:21.646Z,30.93
2022-08-24T12:45:53.390Z,30.96
2022-08-24T12:48:27.592Z,30.99
2022-08-24T12:51:19.078Z,31.02
2022-08-24T12:54:21.417Z,31.03
2022-08-24T12:57:13.810Z,31.04
2022-08-24T12:59:51.411Z,31.08
2022-08-24T13:02:26.561Z,31.10
2022-08-24T13:05:01.732Z,31.12
2022-08-24T13:07:41.520Z,31.12
2022-08-24T13:10:16.973Z,31.13
2022-08-24T13:12:55.033Z,31.14
2022-08-24T13:15:30.145Z,31.14
2022-08-24T13:18:16.881Z,31.12
2022-08-24T13:20:56.728Z,31.10
2022-08-24T13:23:29.068Z,31.11
2022-08-24T13:26:20.793Z,31.12
2022-08-24T13:28:55.623Z,31.13
2022-08-24T13:31:35.221Z,31.13
2022-08-24T13:34:15.178Z,31.15
2022-08-24T13:37:14.495Z,31.16
2022-08-24T13:40:06.322Z,31.16
2022-08-24T13:42:53.942Z,31.18
2022-08-24T13:45:27.955Z,31.20
2022-08-24T13:48:04.352Z,31.21
2022-08-24T13:51:00.911Z,31.23
2022-08-24T13:53:54.529Z,31.23
2022-08-24T13:56:32.726Z,31.23
2022-08-24T13:59:12.414Z,31.25
2022-08-24T14:02:20.556Z,31.24
2022-08-24T14:04:58.249Z,31.24
2022-08-24T14:07:33.399Z,31.23
2022-08-24T14:10:37.281Z,31.21
2022-08-24T14:13:30.463Z,31.21
2022-08-24T14:16:47.832Z,31.19
2022-08-24T14:19:35.898Z,31.18
2022-08-24T14:22:16.545Z,31.17
2022-08-24T14:24:51.603Z,31.17
2022-08-24T14:27:47.365Z,31.15
2022-08-24T14:30:23.649Z,31.14
2022-08-24T14:33:04.944Z,31.13
2022-08-24T14:35:45.904Z,31.12
2022-08-24T14:38:27.155Z,31.09
2022-08-24T14:41:19.907Z,31.06
2022-08-24T14:44:15.892Z,31.02
2022-08-24T14:46:57.125Z,30.97
2022-08-24T14:50:10.654Z,30.95
2022-08-24T14:52:53.266Z,30.91
2022-08-24T14:55:49.408Z,30.87
2022-08-24T14:58:58.076Z,30.87
2022-08-24T15:01:44.979Z,30.85
2022-08-24T15:04:49.597Z,30.85
2022-08-24T15:07:27.518Z,30.90
2022-08-24T15:09:59.781Z,30.92
2022-08-24T15:12:42.800Z,30.92
2022-08-24T15:15:26.465Z,30.87
2022-08-24T15:18:21.942Z,30.79
2022-08-24T15:21:15.655Z,30.70
2022-08-24T15:24:10.458Z,30.59
2022-08-24T15:26:57.899Z,30.49
2022-08-24T15:29:33.217Z,30.39
2022-08-24T15:32:11.497Z,30.31
2022-08-24T15:34:53.338Z,30.24
2022-08-24T15:37:31.155Z,30.16
2022-08-24T15:40:05.333Z,30.08
2022-08-24T15:42:37.733Z,29.99
2022-08-24T15:45:09.802Z,29.92
2022-08-24T15:47:41.656Z,29.83
2022-08-24T15:50:25.946Z,29.75
2022-08-24T15:53:06.215Z,29.65
2022-08-24T15:55:44.289Z,29.55
2022-08-24T15:58:28.811Z,29.46
2022-08-24T16:01:30.542Z,29.35
2022-08-24T16:04:11.413Z,29.23
2022-08-24T16:06:46.662Z,29.09
2022-08-24T16:09:29.169Z,28.96
2022-08-24T16:12:16.710Z,28.85
2022-08-24T16:14:53.016Z,28.75
2022-08-24T16:17:36.623Z,28.62
2022-08-24T16:20:14.454Z,28.51
2022-08-24T16:23:04.838Z,28.39
2022-08-24T16:25:43.502Z,28.28
2022-08-24T16:28:26.397Z,28.15
2022-08-24T16:31:00.959Z,28.03
2022-08-24T16:33:44.279Z,27.92
2022-08-24T16:36:17.768Z,27.83
2022-08-24T16:38:51.110Z,27.72
2022-08-24T16:41:24.411Z,27.61
2022-08-24T16:43:56.337Z,27.51
2022-08-24T16:46:28.481Z,27.43
2022-08-24T16:49:00.265Z,27.34
2022-08-24T16:51:32.619Z,27.24
2022-08-24T16:54:04.493Z,27.17
2022-08-24T16:56:36.264Z,27.09
2022-08-24T16:59:08.204Z,27.01
2022-08-24T17:01:40.164Z,26.95
2022-08-24T17:04:12.069Z,26.89
2022-08-24T17:06:44.107Z,26.84
2022-08-24T17:09:17.846Z,26.78
2022-08-24T17:11:49.775Z,26.74
2022-08-24T17:14:21.519Z,26.69
2022-08-24T17:16:53.415Z,26.65
2022-08-24T17:19:25.585Z,26.60
2022-08-24T17:21:58.146Z,26.56
2022-08-24T17:24:30.036Z,26.49
2022-08-24T17:27:01.875Z,26.44
2022-08-24T17:29:33.758Z,26.38
2022-08-24T17:32:06.300Z,26.33
2022-08-24T17:34:38.291Z,26.27
2022-08-24T17:37:10.342Z,26.22
2022-08-24T17:39:42.941Z,26.16
2022-08-24T17:42:39.982Z,26.11
2022-08-24T17:44:49.186Z,26.05
2022-08-24T17:47:21.042Z,26.00
2022-08-24T17:49:52.868Z,25.94
2022-08-24T17:52:25.653Z,25.89
2022-08-24T17:54:57.558Z,25.83
2022-08-24T17:57:29.328Z,25.78
2022-08-24T18:00:01.359Z,25.74
2022-08-24T18:02:35.157Z,25.70
2022-08-24T18:05:08.644Z,25.67
2022-08-24T18:07:53.143Z,25.63
2022-08-24T18:10:15.489Z,25.59
2022-08-24T18:12:47.342Z,25.56
2022-08-24T18:15:20.639Z,25.52
2022-08-24T18:17:53.083Z,25.48
2022-08-24T18:20:31.286Z,25.42
2022-08-24T18:23:03.127Z,25.38
2022-08-24T18:25:36.746Z,25.32
2022-08-24T18:28:08.747Z,25.27
2022-08-24T18:30:41.615Z,25.23
2022-08-24T18:33:13.387Z,25.20
2022-08-24T18:35:47.155Z,25.18
2022-08-24T18:38:18.958Z,25.14
2022-08-24T18:40:52.639Z,25.07
2022-08-24T18:43:24.868Z,25.03
2022-08-24T18:45:56.857Z,24.99
2022-08-24T18:48:28.624Z,24.94
2022-08-24T18:51:00.425Z,24.91
2022-08-24T18:53:34.089Z,24.87
2022-08-24T18:56:11.815Z,24.84
2022-08-24T18:58:40.519Z,24.80
2022-08-24T19:01:12.750Z,24.78
2022-08-24T19:03:44.603Z,24.73
2022-08-24T19:06:16.341Z,24.70
2022-08-24T19:08:48.402Z,24.67
2022-08-24T19:11:22.695Z,24.64
2022-08-24T19:13:54.345Z,24.62
2022-08-24T19:16:28.051Z,24.58
2022-08-24T19:18:59.911Z,24.53
2022-08-24T19:21:33.020Z,24.50
2022-08-24T19:24:07.221Z,24.48
2022-08-24T19:26:39.527Z,24.45
2022-08-24T19:29:11.372Z,24.42
2022-08-24T19:31:43.140Z,24.37
2022-08-24T19:34:15.188Z,24.35
2022-08-24T19:36:47.144Z,24.33
2022-08-24T19:39:19.219Z,24.29
2022-08-24T19:41:52.914Z,24.25
2022-08-24T19:44:47.364Z,24.24
2022-08-24T19:47:17.331Z,24.22
2022-08-24T19:49:49.168Z,24.19
2022-08-24T19:52:20.899Z,24.16
2022-08-24T19:54:52.665Z,24.13
2022-08-24T19:57:32.477Z,24.07
2022-08-24T20:00:19.396Z,24.05
2022-08-24T20:02:53.115Z,23.99
2022-08-24T20:05:28.371Z,23.95
2022-08-24T20:08:00.925Z,23.91
2022-08-24T20:10:34.120Z,23.88
2022-08-24T20:13:06.368Z,23.84
2022-08-24T20:15:39.994Z,23.80
2022-08-24T20:18:11.754Z,23.74
2022-08-24T20:20:43.485Z,23.72
2022-08-24T20:23:15.699Z,23.69
2022-08-24T20:25:47.435Z,23.66
2022-08-24T20:28:38.119Z,23.65
2022-08-24T20:30:52.855Z,23.61
2022-08-24T20:33:25.047Z,23.59
2022-08-24T20:35:57.300Z,23.56
2022-08-24T20:38:31.805Z,23.54
2022-08-24T20:41:02.856Z,23.49
2022-08-24T20:43:34.829Z,23.48
2022-08-24T20:46:06.957Z,23.45
2022-08-24T20:48:43.096Z,23.40
2022-08-24T20:51:12.987Z,23.38
2022-08-24T20:53:45.803Z,23.33
2022-08-24T20:56:20.829Z,23.31
2022-08-24T20:58:54.400Z,23.29
2022-08-24T21:01:26.335Z,23.26
2022-08-24T21:04:02.794Z,23.24
2022-08-24T21:06:32.107Z,23.26
2022-08-24T21:09:05.804Z,23.23
2022-08-24T21:11:37.860Z,23.24
2022-08-24T21:14:10.607Z,23.23
2022-08-24T21:16:43.608Z,23.22
2022-08-24T21:19:18.022Z,23.20
2022-08-24T21:21:50.769Z,23.19
2022-08-24T21:24:24.291Z,23.16
2022-08-24T21:26:56.023Z,23.15
2022-08-24T21:29:27.857Z,23.12
2022-08-24T21:32:17.392Z,23.10
2022-08-24T21:34:49.574Z,23.08
2022-08-24T21:37:22.279Z,23.07
2022-08-24T21:39:55.743Z,23.07
2022-08-24T21:42:27.667Z,23.09
2022-08-24T21:44:59.418Z,23.10
2022-08-24T21:47:31.463Z,23.11
2022-08-24T21:50:03.247Z,23.10
2022-08-24T21:52:35.660Z,23.10
2022-08-24T21:55:10.608Z,23.08
2022-08-24T21:57:41.646Z,23.07
2022-08-24T22:00:16.043Z,23.06
2022-08-24T22:02:48.788Z,23.02
2022-08-24T22:05:21.554Z,22.98
2022-08-24T22:07:53.297Z,22.93
2022-08-24T22:10:26.361Z,22.90
2022-08-24T22:13:02.061Z,22.88
2022-08-24T22:15:33.305Z,22.87
2022-08-24T22:18:05.164Z,22.87
2022-08-24T22:20:37.429Z,22.87
2022-08-24T22:23:09.909Z,22.84
2022-08-24T22:25:41.949Z,22.86
2022-08-24T22:28:13.677Z,22.83
2022-08-24T22:30:47.137Z,22.81
2022-08-24T22:33:21.367Z,22.78
2022-08-24T22:35:53.477Z,22.73
2022-08-24T22:38:25.239Z,22.69
2022-08-24T22:40:57.288Z,22.67
2022-08-24T22:43:31.114Z,22.65
2022-08-24T22:46:02.973Z,22.63
2022-08-24T22:48:36.984Z,22.61
2022-08-24T22:51:10.468Z,22.56
2022-08-24T22:53:42.313Z,22.50
2022-08-24T22:56:18.849Z,22.44
2022-08-24T22:58:50.767Z,22.38
2022-08-24T23:01:24.015Z,22.32
2022-08-24T23:03:56.843Z,22.29
2022-08-24T23:06:30.074Z,22.23
2022-08-24T23:09:01.934Z,22.18
2022-08-24T23:11:34.285Z,22.15
2022-08-24T23:14:07.449Z,22.09
2022-08-24T23:16:40.877Z,22.04
2022-08-24T23:19:31.390Z,22.03
2022-08-24T23:22:03.327Z,21.97
2022-08-24T23:24:35.470Z,21.95
2022-08-24T23:27:07.608Z,21.93
2022-08-24T23:29:39.841Z,21.90
2022-08-24T23:32:17.761Z,21.89
2022-08-24T23:34:48.822Z,21.85
2022-08-24T23:37:20.832Z,21.83
2022-08-24T23:39:52.607Z,21.79
2022-08-24T23:42:24.685Z,21.78
2022-08-24T23:44:56.450Z,21.80
2022-08-24T23:47:29.172Z,21.83
2022-08-24T23:50:00.854Z,21.86
2022-08-24T23:52:32.741Z,21.85
2022-08-24T23:55:20.063Z,21.85
2022-08-24T23:57:39.884Z,21.85
